sensor_id;sensor_type;location;lat;lon;timestamp;pressure;altitude;pressure_sealevel;temperature;humidity
64610;BME280;51019;46.090;6.350;2023-04-01T00:00:54;96140.34;;;5.87;100.00
64610;BME280;51019;46.090;6.350;2023-04-01T00:03:28;96137.66;;;5.89;100.00
64610;BME280;51019;46.090;6.350;2023-04-01T00:05:56;96126.53;;;5.87;100.00
64610;BME280;51019;46.090;6.350;2023-04-01T00:08:26;96127.38;;;5.76;100.00
64610;BME280;51019;46.090;6.350;2023-04-01T00:10:56;96149.13;;;5.86;100.00
64610;BME280;51019;46.090;6.350;2023-04-01T00:13:24;96154.09;;;5.89;100.00
64610;BME280;51019;46.090;6.350;2023-04-01T00:15:53;96148.13;;;5.98;100.00
64610;BME280;51019;46.090;6.350;2023-04-01T00:18:22;96160.31;;;6.09;100.00
64610;BME280;51019;46.090;6.350;2023-04-01T00:20:51;96154.50;;;6.05;100.00
64610;BME280;51019;46.090;6.350;2023-04-01T00:23:20;96150.19;;;6.68;100.00
64610;BME280;51019;46.090;6.350;2023-04-01T00:25:48;96165.50;;;6.41;100.00
64610;BME280;51019;46.090;6.350;2023-04-01T00:28:19;96163.13;;;6.38;100.00
64610;BME280;51019;46.090;6.350;2023-04-01T00:30:48;96146.28;;;6.21;100.00
64610;BME280;51019;46.090;6.350;2023-04-01T00:33:15;96146.31;;;6.10;100.00
64610;BME280;51019;46.090;6.350;2023-04-01T00:35:43;96133.03;;;5.92;100.00
64610;BME280;51019;46.090;6.350;2023-04-01T00:38:11;96132.94;;;5.82;100.00
64610;BME280;51019;46.090;6.350;2023-04-01T00:40:44;96143.31;;;5.82;100.00
64610;BME280;51019;46.090;6.350;2023-04-01T00:43:13;96152.69;;;5.74;100.00
64610;BME280;51019;46.090;6.350;2023-04-01T00:45:43;96151.50;;;5.67;100.00
64610;BME280;51019;46.090;6.350;2023-04-01T00:48:13;96154.25;;;5.54;100.00
64610;BME280;51019;46.090;6.350;2023-04-01T00:50:45;96167.47;;;5.73;100.00
64610;BME280;51019;46.090;6.350;2023-04-01T00:53:15;96180.34;;;5.75;100.00
64610;BME280;51019;46.090;6.350;2023-04-01T00:55:49;96184.84;;;5.73;100.00
64610;BME280;51019;46.090;6.350;2023-04-01T00:58:21;96184.13;;;5.82;100.00
64610;BME280;51019;46.090;6.350;2023-04-01T01:00:57;96187.16;;;6.09;100.00
64610;BME280;51019;46.090;6.350;2023-04-01T01:03:29;96181.09;;;6.20;100.00
64610;BME280;51019;46.090;6.350;2023-04-01T01:06:23;96177.88;;;6.16;100.00
64610;BME280;51019;46.090;6.350;2023-04-01T01:09:03;96191.69;;;6.28;100.00
64610;BME280;51019;46.090;6.350;2023-04-01T01:11:37;96188.41;;;6.15;100.00
64610;BME280;51019;46.090;6.350;2023-04-01T01:14:28;96203.56;;;6.10;100.00
64610;BME280;51019;46.090;6.350;2023-04-01T01:17:08;96178.06;;;6.04;100.00
64610;BME280;51019;46.090;6.350;2023-04-01T01:19:57;96182.50;;;6.13;100.00
64610;BME280;51019;46.090;6.350;2023-04-01T01:22:39;96186.13;;;6.22;100.00
64610;BME280;51019;46.090;6.350;2023-04-01T01:25:17;96195.63;;;6.11;100.00
64610;BME280;51019;46.090;6.350;2023-04-01T01:27:56;96169.34;;;5.94;100.00
64610;BME280;51019;46.090;6.350;2023-04-01T01:30:39;96187.44;;;5.95;100.00
64610;BME280;51019;46.090;6.350;2023-04-01T01:36:05;96187.06;;;5.89;100.00
64610;BME280;51019;46.090;6.350;2023-04-01T01:38:36;96188.97;;;5.87;100.00
64610;BME280;51019;46.090;6.350;2023-04-01T01:41:06;96200.06;;;5.77;100.00
64610;BME280;51019;46.090;6.350;2023-04-01T01:43:37;96192.50;;;5.86;100.00
64610;BME280;51019;46.090;6.350;2023-04-01T01:46:07;96166.25;;;5.89;100.00
64610;BME280;51019;46.090;6.350;2023-04-01T01:48:37;96195.13;;;5.97;100.00
64610;BME280;51019;46.090;6.350;2023-04-01T01:51:06;96187.91;;;5.67;100.00
64610;BME280;51019;46.090;6.350;2023-04-01T01:53:35;96180.69;;;5.81;100.00
64610;BME280;51019;46.090;6.350;2023-04-01T01:56:04;96164.84;;;5.84;100.00
64610;BME280;51019;46.090;6.350;2023-04-01T01:58:34;96158.00;;;5.83;100.00
64610;BME280;51019;46.090;6.350;2023-04-01T02:01:08;96163.19;;;5.83;100.00
64610;BME280;51019;46.090;6.350;2023-04-01T02:03:39;96160.94;;;5.90;100.00
64610;BME280;51019;46.090;6.350;2023-04-01T02:06:11;96158.81;;;5.95;100.00
64610;BME280;51019;46.090;6.350;2023-04-01T02:08:42;96130.84;;;5.54;100.00
64610;BME280;51019;46.090;6.350;2023-04-01T02:11:16;96025.16;;;5.00;100.00
64610;BME280;51019;46.090;6.350;2023-04-01T02:13:48;96141.69;;;5.81;100.00
64610;BME280;51019;46.090;6.350;2023-04-01T02:16:21;96140.91;;;5.59;100.00
64610;BME280;51019;46.090;6.350;2023-04-01T02:18:51;96135.44;;;5.73;100.00
64610;BME280;51019;46.090;6.350;2023-04-01T02:21:24;96141.22;;;5.65;100.00
64610;BME280;51019;46.090;6.350;2023-04-01T02:23:57;96144.81;;;5.64;100.00
64610;BME280;51019;46.090;6.350;2023-04-01T02:26:26;96126.25;;;5.58;100.00
64610;BME280;51019;46.090;6.350;2023-04-01T02:28:55;96138.03;;;5.73;100.00
64610;BME280;51019;46.090;6.350;2023-04-01T02:31:24;96115.94;;;5.67;100.00
64610;BME280;51019;46.090;6.350;2023-04-01T02:33:53;96109.38;;;5.52;100.00
64610;BME280;51019;46.090;6.350;2023-04-01T02:36:23;96101.84;;;5.38;100.00
64610;BME280;51019;46.090;6.350;2023-04-01T02:38:52;96112.34;;;5.47;100.00
64610;BME280;51019;46.090;6.350;2023-04-01T02:41:20;96114.34;;;5.44;100.00
64610;BME280;51019;46.090;6.350;2023-04-01T02:43:48;96108.19;;;5.45;100.00
64610;BME280;51019;46.090;6.350;2023-04-01T02:46:16;96104.22;;;5.41;100.00
64610;BME280;51019;46.090;6.350;2023-04-01T02:48:43;96047.34;;;5.04;100.00
64610;BME280;51019;46.090;6.350;2023-04-01T02:51:10;96092.72;;;5.43;100.00
64610;BME280;51019;46.090;6.350;2023-04-01T02:53:40;96063.25;;;5.22;100.00
64610;BME280;51019;46.090;6.350;2023-04-01T02:56:07;96014.78;;;4.89;100.00
64610;BME280;51019;46.090;6.350;2023-04-01T02:58:34;96086.94;;;5.51;100.00
64610;BME280;51019;46.090;6.350;2023-04-01T03:01:02;96074.88;;;5.50;100.00
64610;BME280;51019;46.090;6.350;2023-04-01T03:03:29;96082.53;;;5.63;100.00
64610;BME280;51019;46.090;6.350;2023-04-01T03:05:56;96001.75;;;5.11;100.00
64610;BME280;51019;46.090;6.350;2023-04-01T03:08:25;96079.47;;;5.58;100.00
64610;BME280;51019;46.090;6.350;2023-04-01T03:10:54;96094.00;;;5.60;100.00
64610;BME280;51019;46.090;6.350;2023-04-01T03:13:21;96087.59;;;5.64;100.00
64610;BME280;51019;46.090;6.350;2023-04-01T03:15:49;96088.69;;;5.62;100.00
64610;BME280;51019;46.090;6.350;2023-04-01T03:18:16;96104.72;;;5.67;100.00
64610;BME280;51019;46.090;6.350;2023-04-01T03:20:45;96084.91;;;5.55;100.00
64610;BME280;51019;46.090;6.350;2023-04-01T03:23:13;96100.25;;;5.58;100.00
64610;BME280;51019;46.090;6.350;2023-04-01T03:25:42;96096.50;;;5.51;100.00
64610;BME280;51019;46.090;6.350;2023-04-01T03:28:11;96117.84;;;5.54;100.00
64610;BME280;51019;46.090;6.350;2023-04-01T03:30:40;96098.75;;;5.44;100.00
64610;BME280;51019;46.090;6.350;2023-04-01T03:33:07;96134.78;;;5.48;100.00
64610;BME280;51019;46.090;6.350;2023-04-01T03:35:34;96136.06;;;5.43;100.00
64610;BME280;51019;46.090;6.350;2023-04-01T03:38:02;96143.03;;;5.54;100.00
64610;BME280;51019;46.090;6.350;2023-04-01T03:40:30;96110.41;;;5.61;100.00
64610;BME280;51019;46.090;6.350;2023-04-01T03:42:58;96129.91;;;5.55;100.00
64610;BME280;51019;46.090;6.350;2023-04-01T03:45:27;96067.31;;;5.47;100.00
64610;BME280;51019;46.090;6.350;2023-04-01T03:47:55;96120.88;;;5.81;100.00
64610;BME280;51019;46.090;6.350;2023-04-01T03:50:22;96116.03;;;5.77;100.00
64610;BME280;51019;46.090;6.350;2023-04-01T03:52:49;96102.50;;;5.62;100.00
64610;BME280;51019;46.090;6.350;2023-04-01T03:55:17;96106.16;;;5.60;100.00
64610;BME280;51019;46.090;6.350;2023-04-01T03:57:44;96096.13;;;5.55;100.00
64610;BME280;51019;46.090;6.350;2023-04-01T04:00:12;96099.94;;;5.51;100.00
64610;BME280;51019;46.090;6.350;2023-04-01T04:02:42;96090.59;;;5.48;100.00
64610;BME280;51019;46.090;6.350;2023-04-01T04:05:09;96078.78;;;5.44;100.00
64610;BME280;51019;46.090;6.350;2023-04-01T04:07:39;96068.97;;;5.48;100.00
64610;BME280;51019;46.090;6.350;2023-04-01T04:10:07;96067.31;;;5.47;100.00
64610;BME280;51019;46.090;6.350;2023-04-01T04:12:36;96067.03;;;5.29;100.00
64610;BME280;51019;46.090;6.350;2023-04-01T04:15:03;96048.22;;;5.37;100.00
64610;BME280;51019;46.090;6.350;2023-04-01T04:17:31;96069.00;;;5.37;100.00
64610;BME280;51019;46.090;6.350;2023-04-01T04:20:01;96076.69;;;5.38;100.00
64610;BME280;51019;46.090;6.350;2023-04-01T04:22:28;96033.75;;;5.12;100.00
64610;BME280;51019;46.090;6.350;2023-04-01T04:24:56;96077.50;;;5.39;100.00
64610;BME280;51019;46.090;6.350;2023-04-01T04:27:23;96092.81;;;5.53;100.00
64610;BME280;51019;46.090;6.350;2023-04-01T04:29:51;96103.59;;;5.48;100.00
64610;BME280;51019;46.090;6.350;2023-04-01T04:32:19;96092.16;;;5.40;100.00
64610;BME280;51019;46.090;6.350;2023-04-01T04:34:47;96096.06;;;5.34;100.00
64610;BME280;51019;46.090;6.350;2023-04-01T04:37:16;96084.16;;;5.09;100.00
64610;BME280;51019;46.090;6.350;2023-04-01T04:39:43;96108.34;;;5.32;100.00
64610;BME280;51019;46.090;6.350;2023-04-01T04:42:11;96115.69;;;5.27;100.00
64610;BME280;51019;46.090;6.350;2023-04-01T04:44:40;96102.06;;;5.35;100.00
64610;BME280;51019;46.090;6.350;2023-04-01T04:47:07;96111.28;;;5.39;100.00
64610;BME280;51019;46.090;6.350;2023-04-01T04:49:35;96108.13;;;5.24;100.00
64610;BME280;51019;46.090;6.350;2023-04-01T04:52:03;96105.84;;;5.31;100.00
64610;BME280;51019;46.090;6.350;2023-04-01T04:54:32;96119.41;;;5.45;100.00
64610;BME280;51019;46.090;6.350;2023-04-01T04:56:59;96142.00;;;5.34;100.00
64610;BME280;51019;46.090;6.350;2023-04-01T04:59:27;96134.81;;;5.26;100.00
64610;BME280;51019;46.090;6.350;2023-04-01T05:01:54;96131.97;;;5.40;100.00
64610;BME280;51019;46.090;6.350;2023-04-01T05:04:21;96139.78;;;5.29;100.00
64610;BME280;51019;46.090;6.350;2023-04-01T05:06:49;96151.00;;;5.30;100.00
64610;BME280;51019;46.090;6.350;2023-04-01T05:09:17;96121.81;;;5.26;100.00
64610;BME280;51019;46.090;6.350;2023-04-01T05:11:48;96153.91;;;5.47;100.00
64610;BME280;51019;46.090;6.350;2023-04-01T05:14:16;96150.16;;;5.40;100.00
64610;BME280;51019;46.090;6.350;2023-04-01T05:16:43;96152.75;;;5.40;100.00
64610;BME280;51019;46.090;6.350;2023-04-01T05:19:11;96148.75;;;5.36;100.00
64610;BME280;51019;46.090;6.350;2023-04-01T05:21:40;96153.09;;;5.36;100.00
64610;BME280;51019;46.090;6.350;2023-04-01T05:24:08;96148.00;;;5.45;100.00
64610;BME280;51019;46.090;6.350;2023-04-01T05:26:36;96144.22;;;5.50;100.00
64610;BME280;51019;46.090;6.350;2023-04-01T05:29:05;96132.78;;;5.41;100.00
64610;BME280;51019;46.090;6.350;2023-04-01T05:31:32;96144.22;;;5.50;100.00
64610;BME280;51019;46.090;6.350;2023-04-01T05:34:00;96145.63;;;5.54;100.00
64610;BME280;51019;46.090;6.350;2023-04-01T05:36:27;96113.16;;;5.48;100.00
64610;BME280;51019;46.090;6.350;2023-04-01T05:38:55;96137.50;;;5.47;100.00
64610;BME280;51019;46.090;6.350;2023-04-01T05:41:22;96140.13;;;5.36;100.00
64610;BME280;51019;46.090;6.350;2023-04-01T05:43:50;96109.66;;;5.27;100.00
64610;BME280;51019;46.090;6.350;2023-04-01T05:46:19;96117.88;;;5.43;100.00
64610;BME280;51019;46.090;6.350;2023-04-01T05:48:47;96157.50;;;5.13;100.00
64610;BME280;51019;46.090;6.350;2023-04-01T05:51:14;96138.84;;;5.30;100.00
64610;BME280;51019;46.090;6.350;2023-04-01T05:53:42;96124.84;;;5.42;100.00
64610;BME280;51019;46.090;6.350;2023-04-01T05:56:09;96023.16;;;4.82;100.00
64610;BME280;51019;46.090;6.350;2023-04-01T05:58:37;96128.50;;;5.62;100.00
64610;BME280;51019;46.090;6.350;2023-04-01T06:01:06;96115.63;;;5.61;100.00
64610;BME280;51019;46.090;6.350;2023-04-01T06:03:35;96142.28;;;5.74;100.00
64610;BME280;51019;46.090;6.350;2023-04-01T06:06:03;96145.50;;;5.55;100.00
64610;BME280;51019;46.090;6.350;2023-04-01T06:08:31;96149.34;;;5.40;100.00
64610;BME280;51019;46.090;6.350;2023-04-01T06:11:10;96146.25;;;5.35;100.00
64610;BME280;51019;46.090;6.350;2023-04-01T06:13:54;96154.41;;;5.41;100.00
64610;BME280;51019;46.090;6.350;2023-04-01T06:16:37;96170.00;;;5.41;100.00
64610;BME280;51019;46.090;6.350;2023-04-01T06:19:26;96152.06;;;5.27;100.00
64610;BME280;51019;46.090;6.350;2023-04-01T06:22:27;96138.69;;;5.32;100.00
64610;BME280;51019;46.090;6.350;2023-04-01T06:28:04;96139.25;;;5.58;100.00
64610;BME280;51019;46.090;6.350;2023-04-01T06:30:41;96143.38;;;5.60;100.00
64610;BME280;51019;46.090;6.350;2023-04-01T06:36:29;96135.72;;;5.47;100.00
64610;BME280;51019;46.090;6.350;2023-04-01T06:42:05;96129.22;;;5.42;100.00
64610;BME280;51019;46.090;6.350;2023-04-01T06:44:38;96136.56;;;5.37;100.00
64610;BME280;51019;46.090;6.350;2023-04-01T06:47:20;96136.94;;;5.21;100.00
64610;BME280;51019;46.090;6.350;2023-04-01T06:49:56;96160.91;;;5.36;100.00
64610;BME280;51019;46.090;6.350;2023-04-01T06:52:42;96173.78;;;5.48;100.00
64610;BME280;51019;46.090;6.350;2023-04-01T06:55:26;96162.28;;;5.62;100.00
64610;BME280;51019;46.090;6.350;2023-04-01T06:57:56;96166.28;;;5.66;100.00
64610;BME280;51019;46.090;6.350;2023-04-01T07:00:29;96173.13;;;5.78;100.00
64610;BME280;51019;46.090;6.350;2023-04-01T07:03:05;96181.19;;;5.75;100.00
64610;BME280;51019;46.090;6.350;2023-04-01T07:05:36;96176.34;;;5.71;100.00
64610;BME280;51019;46.090;6.350;2023-04-01T07:08:10;96171.13;;;5.71;100.00
64610;BME280;51019;46.090;6.350;2023-04-01T07:10:43;96190.72;;;5.86;100.00
64610;BME280;51019;46.090;6.350;2023-04-01T07:13:17;96134.09;;;5.78;100.00
64610;BME280;51019;46.090;6.350;2023-04-01T07:15:54;96182.06;;;6.08;100.00
64610;BME280;51019;46.090;6.350;2023-04-01T07:18:30;96195.63;;;6.11;100.00
64610;BME280;51019;46.090;6.350;2023-04-01T07:21:01;96197.00;;;5.95;100.00
64610;BME280;51019;46.090;6.350;2023-04-01T07:23:38;96197.81;;;6.06;100.00
64610;BME280;51019;46.090;6.350;2023-04-01T07:26:15;96185.16;;;6.02;100.00
64610;BME280;51019;46.090;6.350;2023-04-01T07:28:43;96185.69;;;6.48;100.00
64610;BME280;51019;46.090;6.350;2023-04-01T07:31:24;96188.53;;;6.66;100.00
64610;BME280;51019;46.090;6.350;2023-04-01T07:34:03;96186.16;;;7.35;100.00
64610;BME280;51019;46.090;6.350;2023-04-01T07:36:36;96172.41;;;7.54;100.00
64610;BME280;51019;46.090;6.350;2023-04-01T07:39:23;96183.81;;;7.02;100.00
64610;BME280;51019;46.090;6.350;2023-04-01T07:41:59;96187.56;;;7.09;100.00
64610;BME280;51019;46.090;6.350;2023-04-01T07:44:36;96173.41;;;6.81;100.00
64610;BME280;51019;46.090;6.350;2023-04-01T07:47:17;96193.94;;;6.74;100.00
64610;BME280;51019;46.090;6.350;2023-04-01T07:49:56;96190.72;;;6.61;100.00
64610;BME280;51019;46.090;6.350;2023-04-01T07:52:31;96113.00;;;6.04;100.00
64610;BME280;51019;46.090;6.350;2023-04-01T07:55:08;96111.94;;;6.06;100.00
64610;BME280;51019;46.090;6.350;2023-04-01T07:57:43;96174.78;;;6.23;100.00
64610;BME280;51019;46.090;6.350;2023-04-01T08:00:18;96212.19;;;6.53;100.00
64610;BME280;51019;46.090;6.350;2023-04-01T08:03:00;96152.28;;;6.53;100.00
64610;BME280;51019;46.090;6.350;2023-04-01T08:05:39;96110.94;;;6.39;100.00
64610;BME280;51019;46.090;6.350;2023-04-01T08:08:17;96217.13;;;6.98;100.00
64610;BME280;51019;46.090;6.350;2023-04-01T08:10:52;96211.16;;;7.38;100.00
64610;BME280;51019;46.090;6.350;2023-04-01T08:13:31;96231.75;;;7.41;100.00
64610;BME280;51019;46.090;6.350;2023-04-01T08:16:10;96151.75;;;6.80;100.00
64610;BME280;51019;46.090;6.350;2023-04-01T08:18:46;96228.25;;;7.21;100.00
64610;BME280;51019;46.090;6.350;2023-04-01T08:21:21;96231.16;;;7.27;100.00
64610;BME280;51019;46.090;6.350;2023-04-01T08:23:52;96229.22;;;7.60;100.00
64610;BME280;51019;46.090;6.350;2023-04-01T08:26:29;96195.25;;;7.81;100.00
64610;BME280;51019;46.090;6.350;2023-04-01T08:29:04;96144.19;;;7.78;100.00
64610;BME280;51019;46.090;6.350;2023-04-01T08:31:39;96206.91;;;8.36;100.00
64610;BME280;51019;46.090;6.350;2023-04-01T08:34:16;96135.34;;;7.60;100.00
64610;BME280;51019;46.090;6.350;2023-04-01T08:36:51;96204.34;;;7.86;100.00
64610;BME280;51019;46.090;6.350;2023-04-01T08:39:28;96206.34;;;8.23;100.00
64610;BME280;51019;46.090;6.350;2023-04-01T08:42:31;96198.50;;;8.23;100.00
64610;BME280;51019;46.090;6.350;2023-04-01T08:45:22;96182.38;;;7.89;100.00
64610;BME280;51019;46.090;6.350;2023-04-01T08:48:06;96183.75;;;7.93;100.00
64610;BME280;51019;46.090;6.350;2023-04-01T08:51:17;96177.44;;;7.95;100.00
64610;BME280;51019;46.090;6.350;2023-04-01T08:56:59;96168.66;;;9.30;100.00
64610;BME280;51019;46.090;6.350;2023-04-01T08:59:39;96159.38;;;9.45;100.00
64610;BME280;51019;46.090;6.350;2023-04-01T09:02:39;96177.56;;;9.74;100.00
64610;BME280;51019;46.090;6.350;2023-04-01T09:05:44;96185.88;;;9.32;100.00
64610;BME280;51019;46.090;6.350;2023-04-01T09:08:25;96190.69;;;8.61;100.00
64610;BME280;51019;46.090;6.350;2023-04-01T09:11:17;96220.03;;;8.25;100.00
64610;BME280;51019;46.090;6.350;2023-04-01T09:17:44;96190.69;;;8.61;100.00
64610;BME280;51019;46.090;6.350;2023-04-01T09:20:42;96191.97;;;9.51;100.00
64610;BME280;51019;46.090;6.350;2023-04-01T09:23:29;96171.63;;;9.72;100.00
64610;BME280;51019;46.090;6.350;2023-04-01T09:26:41;96168.47;;;9.41;100.00
64610;BME280;51019;46.090;6.350;2023-04-01T09:29:24;96155.72;;;9.65;100.00
64610;BME280;51019;46.090;6.350;2023-04-01T09:35:05;96176.09;;;10.52;100.00
64610;BME280;51019;46.090;6.350;2023-04-01T09:37:57;96173.63;;;10.50;100.00
64610;BME280;51019;46.090;6.350;2023-04-01T09:40:58;96173.25;;;10.28;100.00
64610;BME280;51019;46.090;6.350;2023-04-01T09:43:44;96173.66;;;10.76;100.00
64610;BME280;51019;46.090;6.350;2023-04-01T09:46:23;96160.13;;;10.10;100.00
64610;BME280;51019;46.090;6.350;2023-04-01T09:52:02;96149.78;;;12.15;97.63
64610;BME280;51019;46.090;6.350;2023-04-01T09:54:50;96133.31;;;11.55;99.41
64610;BME280;51019;46.090;6.350;2023-04-01T09:57:37;96147.03;;;12.82;89.88
64610;BME280;51019;46.090;6.350;2023-04-01T10:09:45;96096.94;;;10.92;98.77
64610;BME280;51019;46.090;6.350;2023-04-01T10:12:49;96125.03;;;11.34;94.62
64610;BME280;51019;46.090;6.350;2023-04-01T10:16:03;96123.00;;;12.04;91.67
64610;BME280;51019;46.090;6.350;2023-04-01T10:24:56;96109.38;;;12.08;93.97
64610;BME280;51019;46.090;6.350;2023-04-01T10:34:05;96095.03;;;11.78;97.75
64610;BME280;51019;46.090;6.350;2023-04-01T10:36:48;96104.00;;;10.91;99.56
64610;BME280;51019;46.090;6.350;2023-04-01T10:45:53;96109.06;;;10.24;99.13
64610;BME280;51019;46.090;6.350;2023-04-01T10:49:02;96114.19;;;10.15;100.00
64610;BME280;51019;46.090;6.350;2023-04-01T10:54:45;96117.34;;;10.19;100.00
64610;BME280;51019;46.090;6.350;2023-04-01T10:57:29;96123.28;;;9.48;100.00
64610;BME280;51019;46.090;6.350;2023-04-01T11:09:49;96141.19;;;8.12;100.00
64610;BME280;51019;46.090;6.350;2023-04-01T11:21:53;96128.81;;;8.14;100.00
64610;BME280;51019;46.090;6.350;2023-04-01T11:24:38;96128.81;;;8.14;100.00
64610;BME280;51019;46.090;6.350;2023-04-01T11:27:21;96120.94;;;9.55;100.00
64610;BME280;51019;46.090;6.350;2023-04-01T11:29:58;96122.13;;;10.59;100.00
64610;BME280;51019;46.090;6.350;2023-04-01T11:32:41;96029.16;;;10.71;100.00
64610;BME280;51019;46.090;6.350;2023-04-01T11:38:19;96114.88;;;10.79;100.00
64610;BME280;51019;46.090;6.350;2023-04-01T11:40:56;96109.59;;;10.17;100.00
64610;BME280;51019;46.090;6.350;2023-04-01T11:43:31;96106.03;;;10.54;100.00
64610;BME280;51019;46.090;6.350;2023-04-01T11:46:06;96103.28;;;10.20;100.00
64610;BME280;51019;46.090;6.350;2023-04-01T11:48:53;96089.41;;;10.97;100.00
64610;BME280;51019;46.090;6.350;2023-04-01T11:52:00;96087.41;;;12.50;100.00
64610;BME280;51019;46.090;6.350;2023-04-01T11:54:45;96073.72;;;11.97;100.00
64610;BME280;51019;46.090;6.350;2023-04-01T11:57:42;96075.84;;;11.86;100.00
64610;BME280;51019;46.090;6.350;2023-04-01T12:00:19;96070.03;;;11.16;100.00
64610;BME280;51019;46.090;6.350;2023-04-01T12:03:05;96059.47;;;11.42;99.10
64610;BME280;51019;46.090;6.350;2023-04-01T12:05:43;96054.38;;;12.15;97.06
64610;BME280;51019;46.090;6.350;2023-04-01T12:08:36;96015.13;;;12.21;94.61
64610;BME280;51019;46.090;6.350;2023-04-01T12:11:16;96052.16;;;11.70;99.69
64610;BME280;51019;46.090;6.350;2023-04-01T12:13:50;96047.13;;;11.34;100.00
64610;BME280;51019;46.090;6.350;2023-04-01T12:16:41;96012.56;;;10.97;100.00
64610;BME280;51019;46.090;6.350;2023-04-01T12:19:16;95969.03;;;10.70;100.00
64610;BME280;51019;46.090;6.350;2023-04-01T12:21:55;96036.53;;;11.02;100.00
64610;BME280;51019;46.090;6.350;2023-04-01T12:24:44;96032.94;;;11.03;100.00
64610;BME280;51019;46.090;6.350;2023-04-01T12:27:23;95966.91;;;10.39;100.00
64610;BME280;51019;46.090;6.350;2023-04-01T12:30:05;96036.00;;;10.98;100.00
64610;BME280;51019;46.090;6.350;2023-04-01T12:32:41;96036.94;;;10.89;100.00
64610;BME280;51019;46.090;6.350;2023-04-01T12:35:21;96033.66;;;10.87;98.60
64610;BME280;51019;46.090;6.350;2023-04-01T12:38:12;96029.91;;;10.64;100.00
64610;BME280;51019;46.090;6.350;2023-04-01T12:41:01;95997.25;;;10.50;100.00
64610;BME280;51019;46.090;6.350;2023-04-01T12:46:32;96031.53;;;10.57;100.00
64610;BME280;51019;46.090;6.350;2023-04-01T12:49:27;96022.16;;;10.10;100.00
64610;BME280;51019;46.090;6.350;2023-04-01T12:52:07;96038.63;;;10.03;100.00
64610;BME280;51019;46.090;6.350;2023-04-01T12:55:01;96026.56;;;10.10;100.00
64610;BME280;51019;46.090;6.350;2023-04-01T12:58:19;96019.91;;;12.10;100.00
64610;BME280;51019;46.090;6.350;2023-04-01T13:01:02;95995.13;;;13.39;100.00
64610;BME280;51019;46.090;6.350;2023-04-01T13:04:01;95996.56;;;12.31;100.00
64610;BME280;51019;46.090;6.350;2023-04-01T13:06:43;95985.75;;;12.26;100.00
64610;BME280;51019;46.090;6.350;2023-04-01T13:09:23;95910.06;;;12.13;95.16
64610;BME280;51019;46.090;6.350;2023-04-01T13:12:12;95974.50;;;12.64;96.20
64610;BME280;51019;46.090;6.350;2023-04-01T13:15:07;95986.03;;;13.19;95.20
64610;BME280;51019;46.090;6.350;2023-04-01T13:17:40;95974.84;;;13.08;79.59
64610;BME280;51019;46.090;6.350;2023-04-01T13:20:19;95963.75;;;12.27;80.05
64610;BME280;51019;46.090;6.350;2023-04-01T13:23:01;95962.72;;;11.39;81.77
64610;BME280;51019;46.090;6.350;2023-04-01T13:25:37;95970.03;;;11.19;80.87
64610;BME280;51019;46.090;6.350;2023-04-01T13:28:13;95968.56;;;11.16;84.24
64610;BME280;51019;46.090;6.350;2023-04-01T13:30:48;95968.38;;;11.18;87.35
64610;BME280;51019;46.090;6.350;2023-04-01T13:33:26;95965.44;;;11.13;82.81
64610;BME280;51019;46.090;6.350;2023-04-01T13:36:08;95952.06;;;11.56;78.55
64610;BME280;51019;46.090;6.350;2023-04-01T13:38:52;95950.50;;;11.96;77.52
64610;BME280;51019;46.090;6.350;2023-04-01T13:41:38;95942.41;;;12.22;79.88
64610;BME280;51019;46.090;6.350;2023-04-01T13:44:14;95935.88;;;12.02;79.73
64610;BME280;51019;46.090;6.350;2023-04-01T13:47:11;95930.81;;;12.63;77.44
64610;BME280;51019;46.090;6.350;2023-04-01T13:50:01;95919.19;;;12.97;75.32
64610;BME280;51019;46.090;6.350;2023-04-01T13:53:08;95916.31;;;12.67;77.07
64610;BME280;51019;46.090;6.350;2023-04-01T13:55:55;95920.75;;;12.67;74.88
64610;BME280;51019;46.090;6.350;2023-04-01T13:58:57;95911.66;;;12.30;76.83
64610;BME280;51019;46.090;6.350;2023-04-01T14:01:37;95913.38;;;12.07;81.76
64610;BME280;51019;46.090;6.350;2023-04-01T14:04:42;95909.78;;;11.84;81.02
64610;BME280;51019;46.090;6.350;2023-04-01T14:07:18;95903.31;;;11.13;84.07
64610;BME280;51019;46.090;6.350;2023-04-01T14:10:13;95906.16;;;11.77;84.33
64610;BME280;51019;46.090;6.350;2023-04-01T14:12:48;95917.78;;;11.66;77.64
64610;BME280;51019;46.090;6.350;2023-04-01T14:15:39;95904.84;;;11.89;80.93
64610;BME280;51019;46.090;6.350;2023-04-01T14:18:35;95897.00;;;11.81;77.91
64610;BME280;51019;46.090;6.350;2023-04-01T14:21:19;95889.88;;;11.33;74.76
64610;BME280;51019;46.090;6.350;2023-04-01T14:23:57;95889.25;;;11.39;76.53
64610;BME280;51019;46.090;6.350;2023-04-01T14:26:55;95879.56;;;11.55;77.50
64610;BME280;51019;46.090;6.350;2023-04-01T14:29:28;95899.41;;;11.66;79.61
64610;BME280;51019;46.090;6.350;2023-04-01T14:32:05;95883.34;;;11.37;79.56
64610;BME280;51019;46.090;6.350;2023-04-01T14:34:44;95851.03;;;11.20;80.31
64610;BME280;51019;46.090;6.350;2023-04-01T14:37:23;95839.19;;;11.00;78.09
64610;BME280;51019;46.090;6.350;2023-04-01T14:40:21;95901.41;;;11.40;82.75
64610;BME280;51019;46.090;6.350;2023-04-01T14:43:10;95905.56;;;11.00;85.29
64610;BME280;51019;46.090;6.350;2023-04-01T14:45:46;95901.31;;;10.99;84.83
64610;BME280;51019;46.090;6.350;2023-04-01T14:48:25;95901.84;;;10.61;90.31
64610;BME280;51019;46.090;6.350;2023-04-01T14:51:01;95910.91;;;10.40;94.82
64610;BME280;51019;46.090;6.350;2023-04-01T14:53:33;95902.88;;;10.16;90.18
64610;BME280;51019;46.090;6.350;2023-04-01T14:56:04;95900.66;;;10.21;100.00
64610;BME280;51019;46.090;6.350;2023-04-01T14:58:43;95772.78;;;9.48;100.00
64610;BME280;51019;46.090;6.350;2023-04-01T15:01:26;95775.13;;;9.60;89.40
64610;BME280;51019;46.090;6.350;2023-04-01T15:04:10;95802.47;;;9.65;85.79
64610;BME280;51019;46.090;6.350;2023-04-01T15:07:02;95887.28;;;10.24;89.72
64610;BME280;51019;46.090;6.350;2023-04-01T15:09:40;95878.66;;;10.40;94.17
64610;BME280;51019;46.090;6.350;2023-04-01T15:12:20;95827.22;;;10.05;88.37